Weather at Barksdale Air Force Base

Public forecast

Using degrees Fahrenheit for public forecast. Weather courtesy of forecast.io.

Current aviation weather report (METAR) for Barksdale Air Force Base

Report is more than 2 hours old.

2024/05/28 20:55 (retrieved 3 hours ago)

KBAD 282055Z AUTO 06006KT 10SM FEW180 22/19 A3005 RMK AO2 PRESRR SLP179 60004 T02210189 55045

Aviation forecast (TAF) for Barksdale Air Force Base

2024/05/28 20:03 Ammendment (retrieved 4 hours ago)

AMD KBAD 282057Z 2820/3002 13007KT 9999 OVC070 QNH2995INS BECMG 2912/2913 10006KT 9999 VCSH BKN050 QNH3008INS BECMG 2916/2917 09010KT 9999 NSW BKN050 QNH3005INS BECMG 2920/2921 11010KT 9999 VCTS OVC030CB QNH3004INS TX27/2920Z TN16/2912Z